createdAt,value
2022-09-18T00:02:43.332Z,10.39
2022-09-18T00:07:45.308Z,10.37
2022-09-18T00:12:47.130Z,10.32
2022-09-18T00:17:48.822Z,10.29
2022-09-18T00:22:50.502Z,10.20
2022-09-18T00:27:52.325Z,10.15
2022-09-18T00:32:54.201Z,10.12
2022-09-18T00:37:56.076Z,10.07
2022-09-18T00:42:59.056Z,10.01
2022-09-18T00:48:18.356Z,10.02
2022-09-18T00:53:28.597Z,10.00
2022-09-18T00:58:30.551Z,9.97
2022-09-18T01:03:33.032Z,9.93
2022-09-18T01:09:05.392Z,9.88
2022-09-18T01:14:41.223Z,9.81
2022-09-18T01:20:08.157Z,9.74
2022-09-18T01:25:22.516Z,9.69
2022-09-18T01:30:38.361Z,9.67
2022-09-18T01:35:52.984Z,9.67
2022-09-18T01:41:06.437Z,9.60
2022-09-18T01:46:18.192Z,9.52
2022-09-18T01:51:29.676Z,9.41
2022-09-18T01:56:38.357Z,9.32
2022-09-18T02:01:44.552Z,9.20
2022-09-18T02:06:58.406Z,9.12
2022-09-18T02:12:01.952Z,9.05
2022-09-18T02:17:13.818Z,8.96
2022-09-18T02:22:20.113Z,8.87
2022-09-18T02:27:27.253Z,8.82
2022-09-18T02:32:31.719Z,8.79
2022-09-18T02:37:52.236Z,8.74
2022-09-18T02:43:26.802Z,8.67
2022-09-18T02:48:51.741Z,8.59
2022-09-18T02:54:04.376Z,8.52
2022-09-18T02:59:10.231Z,8.48
2022-09-18T03:04:36.328Z,8.44
2022-09-18T03:10:02.520Z,8.43
2022-09-18T03:15:06.937Z,8.42
2022-09-18T03:20:09.887Z,8.43
2022-09-18T03:25:14.450Z,8.48
2022-09-18T03:30:16.639Z,8.57
2022-09-18T03:35:18.850Z,8.62
2022-09-18T03:40:21.216Z,8.70
2022-09-18T03:45:23.135Z,8.80
2022-09-18T03:50:24.919Z,8.84
2022-09-18T03:55:27.493Z,8.87
2022-09-18T04:00:48.014Z,8.92
2022-09-18T04:05:54.585Z,8.91
2022-09-18T04:11:35.788Z,8.83
2022-09-18T04:16:37.791Z,8.80
2022-09-18T04:21:39.689Z,8.79
2022-09-18T04:26:41.508Z,8.77
2022-09-18T04:31:44.177Z,8.80
2022-09-18T04:36:54.839Z,8.78
2022-09-18T04:41:57.089Z,8.75
2022-09-18T04:46:59.328Z,8.70
2022-09-18T04:52:21.332Z,8.69
2022-09-18T04:57:36.713Z,8.71
2022-09-18T05:02:39.002Z,8.73
2022-09-18T05:07:43.594Z,8.75
2022-09-18T05:12:45.652Z,8.79
2022-09-18T05:17:48.210Z,8.80
2022-09-18T05:22:50.693Z,8.90
2022-09-18T05:27:58.169Z,9.09
2022-09-18T05:33:05.289Z,9.36
2022-09-18T05:38:13.749Z,9.56
2022-09-18T05:43:38.338Z,9.72
2022-09-18T05:48:49.838Z,9.93
2022-09-18T05:53:55.655Z,10.13
2022-09-18T05:59:01.070Z,10.33
2022-09-18T06:04:04.543Z,10.37
2022-09-18T06:09:16.563Z,10.49
2022-09-18T06:14:18.305Z,10.62
2022-09-18T06:19:21.461Z,10.70
2022-09-18T06:24:23.550Z,10.77
2022-09-18T06:29:32.826Z,10.80
2022-09-18T06:34:39.969Z,10.83
2022-09-18T06:39:43.754Z,10.93
2022-09-18T06:44:52.131Z,11.08
2022-09-18T06:50:15.301Z,11.21
2022-09-18T06:55:27.114Z,11.34
2022-09-18T07:00:29.277Z,11.49
2022-09-18T07:05:32.751Z,11.63
2022-09-18T07:10:35.275Z,11.90
2022-09-18T07:15:37.329Z,12.07
2022-09-18T07:20:41.318Z,12.34
2022-09-18T07:25:43.253Z,12.67
2022-09-18T07:30:45.334Z,12.85
2022-09-18T07:35:48.036Z,12.84
2022-09-18T07:40:52.961Z,12.97
2022-09-18T07:46:09.100Z,13.10
2022-09-18T07:51:12.737Z,13.26
2022-09-18T07:56:16.617Z,13.49
2022-09-18T08:01:18.655Z,13.84
2022-09-18T08:06:28.311Z,14.06
2022-09-18T08:11:56.192Z,14.20
2022-09-18T08:17:14.051Z,14.57
2022-09-18T08:22:39.407Z,14.86
2022-09-18T08:27:41.824Z,14.67
2022-09-18T08:32:43.893Z,14.30
2022-09-18T08:37:52.326Z,13.94
2022-09-18T08:43:37.365Z,13.51
2022-09-18T08:49:08.740Z,13.14
2022-09-18T08:54:46.339Z,13.10
2022-09-18T09:00:04.359Z,13.32
2022-09-18T09:05:16.831Z,13.85
2022-09-18T09:10:39.031Z,14.19
2022-09-18T09:15:54.414Z,14.25
2022-09-18T09:21:20.593Z,14.76
2022-09-18T09:26:24.802Z,15.17
2022-09-18T09:32:04.497Z,15.49
2022-09-18T09:37:53.330Z,15.77
2022-09-18T09:43:29.771Z,15.51
2022-09-18T09:49:00.445Z,15.23
2022-09-18T09:54:03.354Z,14.98
2022-09-18T09:59:27.094Z,14.18
2022-09-18T10:05:27.238Z,13.38
2022-09-18T10:10:49.381Z,12.83
2022-09-18T10:16:05.790Z,12.63
2022-09-18T10:21:36.794Z,12.68
2022-09-18T10:27:14.323Z,12.75
2022-09-18T10:32:38.419Z,12.95
2022-09-18T10:37:51.024Z,13.13
2022-09-18T10:43:01.636Z,12.76
2022-09-18T10:48:24.297Z,12.18
2022-09-18T10:53:38.633Z,11.81
2022-09-18T10:58:46.692Z,11.73
2022-09-18T11:04:05.020Z,11.90
2022-09-18T11:09:11.293Z,11.92
2022-09-18T11:14:24.987Z,12.00
2022-09-18T11:19:40.300Z,11.87
2022-09-18T11:25:17.466Z,11.57
2022-09-18T11:30:27.924Z,11.34
2022-09-18T11:35:31.827Z,11.24
2022-09-18T11:40:44.960Z,11.26
2022-09-18T11:46:31.365Z,11.28
2022-09-18T11:52:02.512Z,11.35
2022-09-18T11:57:19.078Z,11.21
2022-09-18T12:02:38.147Z,11.17
2022-09-18T12:07:58.121Z,11.24
2022-09-18T12:13:13.664Z,11.19
2022-09-18T12:18:31.202Z,11.22
2022-09-18T12:23:36.273Z,11.19
2022-09-18T12:28:54.404Z,11.10
2022-09-18T12:34:08.898Z,10.98
2022-09-18T12:39:36.687Z,11.00
2022-09-18T12:45:43.781Z,11.12
2022-09-18T12:50:48.286Z,11.17
2022-09-18T12:56:19.563Z,11.32
2022-09-18T13:01:45.671Z,11.40
2022-09-18T13:06:58.212Z,11.53
2022-09-18T13:12:27.235Z,11.67
2022-09-18T13:17:39.525Z,12.03
2022-09-18T13:22:45.003Z,12.30
2022-09-18T13:27:47.732Z,12.32
2022-09-18T13:33:11.270Z,12.26
2022-09-18T13:38:28.851Z,11.76
2022-09-18T13:43:33.585Z,11.41
2022-09-18T13:48:45.649Z,11.27
2022-09-18T13:54:07.812Z,11.24
2022-09-18T13:59:21.961Z,11.22
2022-09-18T14:04:39.205Z,11.26
2022-09-18T14:09:48.971Z,11.43
2022-09-18T14:15:26.878Z,11.57
2022-09-18T14:20:28.807Z,11.66
2022-09-18T14:25:50.818Z,11.71
2022-09-18T14:31:17.199Z,11.78
2022-09-18T14:36:19.070Z,11.76
2022-09-18T14:41:27.110Z,11.75
2022-09-18T14:46:52.219Z,11.77
2022-09-18T14:52:03.588Z,11.95
2022-09-18T14:57:14.735Z,12.22
2022-09-18T15:02:22.614Z,13.08
2022-09-18T15:07:25.981Z,13.74
2022-09-18T15:12:31.696Z,13.82
2022-09-18T15:17:33.937Z,13.75
2022-09-18T15:22:35.918Z,13.72
2022-09-18T15:27:38.575Z,13.99
2022-09-18T15:32:45.679Z,14.28
2022-09-18T15:37:51.728Z,14.58
2022-09-18T15:43:27.141Z,14.84
2022-09-18T15:48:35.164Z,15.32
2022-09-18T15:53:39.008Z,15.64
2022-09-18T15:58:55.267Z,16.01
2022-09-18T16:04:04.459Z,16.28
2022-09-18T16:09:07.829Z,16.36
2022-09-18T16:14:39.623Z,16.38
2022-09-18T16:19:44.366Z,16.07
2022-09-18T16:24:46.666Z,15.43
2022-09-18T16:29:49.067Z,14.76
2022-09-18T16:34:50.870Z,14.17
2022-09-18T16:39:52.610Z,13.63
2022-09-18T16:45:28.311Z,13.17
2022-09-18T16:50:33.928Z,12.73
2022-09-18T16:55:52.188Z,12.35
2022-09-18T17:00:54.167Z,12.00
2022-09-18T17:05:56.358Z,11.70
2022-09-18T17:10:58.091Z,11.47
2022-09-18T17:16:01.805Z,11.31
2022-09-18T17:21:05.512Z,11.23
2022-09-18T17:26:10.214Z,10.93
2022-09-18T17:31:29.365Z,10.73
2022-09-18T17:36:59.243Z,10.68
2022-09-18T17:42:15.122Z,10.69
2022-09-18T17:47:17.010Z,10.60
2022-09-18T17:52:39.285Z,10.57
2022-09-18T17:57:41.247Z,10.52
2022-09-18T18:02:43.226Z,10.41
2022-09-18T18:07:44.979Z,10.24
2022-09-18T18:12:46.693Z,10.07
2022-09-18T18:17:49.484Z,9.93
2022-09-18T18:23:04.448Z,9.79
2022-09-18T18:28:09.206Z,9.75
2022-09-18T18:33:11.483Z,9.71
2022-09-18T18:38:16.937Z,9.66
2022-09-18T18:43:18.762Z,9.63
2022-09-18T18:48:23.501Z,9.65
2022-09-18T18:53:26.372Z,9.65
2022-09-18T18:58:28.527Z,9.63
2022-09-18T19:03:30.761Z,9.61
2022-09-18T19:08:34.559Z,9.57
2022-09-18T19:13:41.626Z,9.49
2022-09-18T19:18:43.536Z,9.40
2022-09-18T19:23:49.911Z,9.30
2022-09-18T19:28:53.434Z,9.21
2022-09-18T19:33:56.623Z,9.10
2022-09-18T19:39:00.738Z,8.99
2022-09-18T19:44:04.788Z,8.92
2022-09-18T19:49:15.745Z,8.90
2022-09-18T19:54:17.996Z,8.91
2022-09-18T19:59:19.731Z,8.96
2022-09-18T20:04:21.589Z,9.01
2022-09-18T20:09:28.611Z,9.06
2022-09-18T20:14:30.337Z,9.11
2022-09-18T20:19:32.176Z,9.20
2022-09-18T20:24:34.238Z,9.36
2022-09-18T20:29:36.392Z,9.51
2022-09-18T20:34:38.701Z,9.66
2022-09-18T20:39:44.523Z,9.79
2022-09-18T20:44:46.240Z,9.91
2022-09-18T20:49:50.393Z,10.01
2022-09-18T20:54:52.897Z,10.05
2022-09-18T20:59:54.601Z,10.07
2022-09-18T21:04:57.467Z,10.06
2022-09-18T21:10:00.169Z,10.07
2022-09-18T21:15:02.251Z,10.14
2022-09-18T21:20:07.087Z,10.21
2022-09-18T21:25:09.482Z,10.21
2022-09-18T21:30:12.600Z,10.17
2022-09-18T21:35:14.637Z,10.12
2022-09-18T21:40:16.613Z,10.12
2022-09-18T21:45:20.380Z,10.12
2022-09-18T21:50:22.877Z,10.09
2022-09-18T21:55:24.824Z,10.05
2022-09-18T22:00:26.625Z,10.02
2022-09-18T22:05:29.415Z,10.00
2022-09-18T22:10:31.242Z,10.00
2022-09-18T22:15:33.123Z,9.99
2022-09-18T22:20:37.016Z,9.94
2022-09-18T22:25:40.413Z,9.86
2022-09-18T22:30:42.189Z,9.84
2022-09-18T22:35:43.896Z,9.79
2022-09-18T22:40:45.633Z,9.67
2022-09-18T22:45:47.615Z,9.52
2022-09-18T22:50:50.501Z,9.36
2022-09-18T22:55:52.385Z,9.27
2022-09-18T23:00:54.214Z,9.21
2022-09-18T23:05:55.912Z,9.12
2022-09-18T23:11:08.172Z,9.04
2022-09-18T23:16:13.025Z,9.02
2022-09-18T23:21:15.020Z,9.02
2022-09-18T23:26:19.753Z,9.04
2022-09-18T23:31:24.901Z,9.04
2022-09-18T23:36:35.794Z,9.03
2022-09-18T23:41:38.478Z,9.05
2022-09-18T23:46:41.207Z,9.09
2022-09-18T23:51:46.434Z,9.09
2022-09-18T23:56:49.021Z,9.09
